This is the latest recevied weather packets stored in our database for station/object KB5SMY. If no packets are shown the sender has not sent any weather packets the latest 10 day(s).
| Time | Temp. | Humidity | Pressure | Rain* | Wind** | Luminosity | Snow |
|---|---|---|---|---|---|---|---|
| 1777491604 | 16.67° C | 82% | 1013.3 hPa | 0 mm | - | 735 W/m² | - |
| 1777489805 | 15.56° C | 83% | 1014.6 hPa | 0 mm | - | 155 W/m² | - |
| 1777486205 | 15° C | 86% | 1015.6 hPa | 0.51 mm | - | 339 W/m² | - |
| 1777483331 | 15° C | 81% | 1016.5 hPa | 0 mm | - | 79 W/m² | - |
| 1777482004 | 15° C | 81% | 1016.4 hPa | 0 mm | - | 69 W/m² | - |
| 1777480205 | 15° C | 81% | 1016.2 hPa | 0 mm | - | 74 W/m² | - |
| 1777477804 | 15° C | 81% | 1016.1 hPa | 0 mm | - | 58 W/m² | - |
| 1777477205 | 15° C | 79% | 1016.2 hPa | 0 mm | - | 25 W/m² | - |
| 1777476004 | 15.56° C | 80% | 1016.2 hPa | 0 mm | - | 32 W/m² | - |
| 1777474805 | 15.56° C | 80% | 1015.7 hPa | 0 mm | - | 35 W/m² | - |
| 1777473731 | 15.56° C | 80% | 1015.6 hPa | 0 mm | - | 62 W/m² | - |
| 1777472531 | 15.56° C | 79% | 1015.5 hPa | 0 mm | - | 39 W/m² | - |
| 1777468804 | 16.11° C | 79% | 1014.9 hPa | 0 mm | - | 25 W/m² | - |
| 1777467604 | 16.11° C | 81% | 1014.8 hPa | 0 mm | - | 21 W/m² | - |
| 1777463404 | 17.22° C | 81% | 1014.2 hPa | 0 mm | - | 0 W/m² | - |
| 1777462331 | 17.22° C | 82% | 1013.5 hPa | 0 mm | - | 0 W/m² | - |
| 1777459804 | 18.33° C | 83% | 1012.9 hPa | 0 mm | - | 0 W/m² | - |
| 1777459331 | 18.33° C | 84% | 1012.7 hPa | 0 mm | - | 0 W/m² | - |
| 1777456932 | 18.89° C | 87% | 1012.7 hPa | 0 mm | - | 0 W/m² | - |
| 1777455604 | 18.89° C | 87% | 1012.1 hPa | 0 mm | - | 0 W/m² | - |
| 1777454404 | 19.44° C | 87% | 1012 hPa | 0 mm | - | 0 W/m² | - |
| 1777452604 | 19.44° C | 88% | 1012 hPa | 0 mm | - | 0 W/m² | - |
| 1777452004 | 20° C | 88% | 1011.9 hPa | 0 mm | - | 0 W/m² | - |
| 1777449731 | 20° C | 89% | 1012.3 hPa | 0 mm | - | 0 W/m² | - |
| 1777449004 | 20° C | 90% | 1012.4 hPa | 0 mm | - | 0 W/m² | - |
* Rain latest hour (hover to see other rain measurements)
** Current wind speed in m/s (hover to see current wind gust speed)